Cuba, MO (65453)

5:06 PM CST on December 22, 2014 (GMT -0600)
Rosati, Missouri | Change Station
CLOSE
Current Station
Personal Weather Station
Location: St. James, MO
Elevation: 1043 ft
Nearby Weather Stations

Elev 1043 ft 38.03 °N, 91.54 °W | Updated 13 minutes ago

Overcast
Overcast
47.3 °F
Feels Like 47 °F
N
2.0
Wind Variable Wind from SE
Gusts 7.0 mph

Today
High -- | Low -- °F
--% Chance of Precip.
Yesterday
High -- | Low -- °F
Precip. -- in
7:18 AM 4:49 PM
New Moon, 1% visible
Pressure 29.50 in
Visibility 8.0 miles
Clouds Overcast 400 ft
Windchill 47 °F
Dew Point 47 °F
Humidity 97%
Rainfall 0.51 in
Snow Depth Not available.
UV 0 out of 12
Pollen 1.70 out of 12
Air Quality Not available.
Flu Activity Not available.
METAR KVIH 222253Z AUTO 17006KT 8SM OVC004 08/07 A2949 RMK AO2 RAE38 SLP988 P0002 T00830072 $

More Conditions Fewer Conditions

Pressure 29.50 in
Visibility 8.0 miles
Clouds Overcast 400 ft
Windchill 47 °F
Dew Point 47 °F
Humidity 97%
Rainfall 0.51 in
Snow Depth Not available.
UV 0 out of 12
Pollen 1.70 out of 12
Air Quality Not available.
Flu Activity Not available.
METAR KVIH 222253Z AUTO 17006KT 8SM OVC004 08/07 A2949 RMK AO2 RAE38 SLP988 P0002 T00830072 $

More Conditions Fewer Conditions

10-Day Weather Forecast

Almanac

Astronomy

Dec. 22, 2014 Rise Set
Actual Time
Civil Twilight
Nautical Twilight
Astronomical Twilight
Moon
Length of Visible Light
Length of Day
Tomorrow will be .
, % of the Moon is Illuminated

Today's Extremes

State Highs State Lows

Community

WunderPhotos

Upload Photos

1,779,698 photos uploaded!

WunderBlogs® & News

Nearby

Air Quality

  Air Quality AQ Index Pollutant
Not available.

Snow Depth

Station Depth Elevation

Earthquake Activity

City Distance Mag. Time & Date
Minimum magnitude displayed is 2.5.

Coastal Water Temperatures

Place Temperature

Nearby Weather Stations